createdAt,value
2018-11-03T00:01:54.693Z,11.52
2018-11-03T00:04:23.420Z,11.45
2018-11-03T00:06:52.148Z,11.45
2018-11-03T00:09:20.811Z,11.42
2018-11-03T00:11:49.552Z,11.41
2018-11-03T00:14:18.218Z,11.39
2018-11-03T00:16:46.910Z,11.35
2018-11-03T00:19:15.647Z,11.31
2018-11-03T00:21:44.285Z,11.27
2018-11-03T00:24:12.956Z,11.25
2018-11-03T00:26:41.685Z,11.20
2018-11-03T00:29:10.783Z,11.17
2018-11-03T00:31:39.523Z,11.24
2018-11-03T00:34:08.237Z,11.25
2018-11-03T00:36:36.928Z,11.30
2018-11-03T00:39:08.641Z,11.34
2018-11-03T00:41:37.330Z,11.35
2018-11-03T00:44:06.689Z,11.33
2018-11-03T00:46:35.344Z,11.34
2018-11-03T00:49:04.078Z,11.37
2018-11-03T00:51:32.909Z,11.36
2018-11-03T00:54:01.687Z,11.31
2018-11-03T00:56:30.304Z,11.24
2018-11-03T00:58:59.069Z,11.11
2018-11-03T01:01:27.777Z,11.02
2018-11-03T01:03:56.426Z,10.97
2018-11-03T01:06:25.138Z,10.92
2018-11-03T01:08:53.783Z,10.90
2018-11-03T01:11:22.494Z,10.87
2018-11-03T01:13:51.141Z,10.88
2018-11-03T01:16:19.877Z,10.91
2018-11-03T01:18:48.513Z,10.93
2018-11-03T01:21:17.240Z,10.93
2018-11-03T01:23:45.955Z,10.88
2018-11-03T01:26:14.550Z,10.79
2018-11-03T01:28:43.226Z,10.70
2018-11-03T01:31:11.849Z,10.70
2018-11-03T01:33:40.482Z,10.68
2018-11-03T01:36:09.237Z,10.66
2018-11-03T01:38:38.001Z,10.66
2018-11-03T01:41:06.676Z,10.64
2018-11-03T01:43:35.305Z,10.67
2018-11-03T01:46:03.995Z,10.80
2018-11-03T01:48:32.730Z,10.80
2018-11-03T01:51:01.375Z,10.78
2018-11-03T01:53:30.019Z,10.78
2018-11-03T01:55:58.675Z,10.81
2018-11-03T01:58:27.345Z,10.82
2018-11-03T02:00:56.087Z,10.83
2018-11-03T02:03:24.760Z,10.82
2018-11-03T02:05:53.410Z,10.80
2018-11-03T02:08:22.070Z,10.78
2018-11-03T02:10:50.699Z,10.75
2018-11-03T02:13:19.355Z,10.70
2018-11-03T02:15:47.968Z,10.69
2018-11-03T02:18:16.618Z,10.60
2018-11-03T02:20:45.347Z,10.63
2018-11-03T02:23:14.069Z,10.60
2018-11-03T02:25:42.729Z,10.61
2018-11-03T02:28:11.441Z,10.55
2018-11-03T02:30:40.154Z,10.49
2018-11-03T02:33:08.771Z,10.49
2018-11-03T02:35:37.506Z,10.47
2018-11-03T02:38:06.210Z,10.37
2018-11-03T02:40:34.962Z,10.38
2018-11-03T02:43:03.589Z,10.46
2018-11-03T02:45:32.259Z,10.45
2018-11-03T02:48:00.958Z,10.49
2018-11-03T02:50:29.701Z,10.49
2018-11-03T02:52:58.382Z,10.54
2018-11-03T02:55:27.010Z,10.55
2018-11-03T02:57:55.678Z,9.47
2018-11-03T03:00:24.397Z,10.59
2018-11-03T03:02:53.057Z,10.56
2018-11-03T03:05:21.725Z,10.57
2018-11-03T03:07:50.401Z,10.53
2018-11-03T03:10:19.073Z,10.50
2018-11-03T03:12:47.746Z,10.49
2018-11-03T03:15:16.461Z,10.46
2018-11-03T03:17:45.192Z,10.49
2018-11-03T03:20:13.937Z,10.47
2018-11-03T03:22:42.866Z,10.41
2018-11-03T03:25:12.218Z,10.38
2018-11-03T03:27:40.958Z,10.33
2018-11-03T03:30:10.197Z,10.29
2018-11-03T03:32:38.910Z,10.19
2018-11-03T03:35:07.849Z,10.19
2018-11-03T03:37:36.501Z,10.15
2018-11-03T03:40:06.067Z,10.18
2018-11-03T03:42:35.057Z,10.23
2018-11-03T03:45:03.713Z,10.20
2018-11-03T03:47:32.388Z,10.19
2018-11-03T03:50:01.013Z,10.22
2018-11-03T03:52:29.685Z,10.26
2018-11-03T03:54:58.667Z,10.25
2018-11-03T03:57:27.302Z,10.23
2018-11-03T03:59:55.955Z,10.29
2018-11-03T04:02:24.585Z,10.26
2018-11-03T04:04:53.226Z,10.22
2018-11-03T04:07:22.031Z,10.36
2018-11-03T04:09:51.381Z,10.45
2018-11-03T04:12:20.165Z,10.47
2018-11-03T04:14:48.837Z,10.44
2018-11-03T04:17:17.513Z,10.40
2018-11-03T04:19:46.132Z,10.46
2018-11-03T04:22:14.786Z,10.46
2018-11-03T04:24:43.699Z,10.45
2018-11-03T04:27:12.968Z,10.44
2018-11-03T04:29:41.599Z,10.43
2018-11-03T04:32:10.287Z,10.41
2018-11-03T04:34:38.934Z,10.37
2018-11-03T04:37:07.633Z,10.33
2018-11-03T04:39:36.290Z,10.38
2018-11-03T04:42:05.138Z,10.42
2018-11-03T04:44:33.762Z,10.42
2018-11-03T04:47:02.449Z,10.31
2018-11-03T04:49:31.092Z,10.26
2018-11-03T04:51:59.770Z,10.12
2018-11-03T04:54:28.461Z,10.06
2018-11-03T04:56:57.096Z,10.15
2018-11-03T04:59:25.779Z,10.23
2018-11-03T05:01:54.434Z,10.28
2018-11-03T05:04:23.121Z,10.26
2018-11-03T05:06:51.794Z,10.32
2018-11-03T05:09:20.404Z,10.70
2018-11-03T05:11:49.096Z,10.93
2018-11-03T05:14:17.760Z,11.03
2018-11-03T05:16:46.497Z,10.94
2018-11-03T05:19:15.557Z,11.02
2018-11-03T05:21:44.269Z,11.09
2018-11-03T05:24:12.959Z,11.05
2018-11-03T05:26:41.595Z,11.24
2018-11-03T05:29:10.295Z,11.43
2018-11-03T05:31:39.080Z,11.50
2018-11-03T05:34:07.709Z,11.63
2018-11-03T05:36:36.345Z,11.71
2018-11-03T05:39:07.356Z,11.85
2018-11-03T05:41:36.047Z,11.89
2018-11-03T05:44:04.758Z,12.11
2018-11-03T05:46:33.594Z,12.09
2018-11-03T05:49:02.110Z,12.42
2018-11-03T05:51:30.768Z,12.56
2018-11-03T05:53:59.477Z,12.41
2018-11-03T05:56:28.114Z,12.37
2018-11-03T05:58:56.851Z,12.64
2018-11-03T06:01:25.518Z,12.84
2018-11-03T06:03:54.243Z,13.02
2018-11-03T06:06:22.911Z,12.96
2018-11-03T06:08:52.133Z,11.43
2018-11-03T06:11:20.657Z,13.02
2018-11-03T06:13:49.333Z,13.06
2018-11-03T06:16:18.050Z,13.18
2018-11-03T06:18:46.690Z,13.16
2018-11-03T06:21:15.351Z,13.06
2018-11-03T06:23:44.121Z,12.82
2018-11-03T06:26:12.712Z,12.55
2018-11-03T06:28:41.357Z,12.46
2018-11-03T06:31:09.997Z,12.73
2018-11-03T06:33:38.670Z,12.74
2018-11-03T06:36:07.394Z,12.88
2018-11-03T06:38:36.131Z,12.88
2018-11-03T06:41:05.304Z,13.10
2018-11-03T06:43:33.974Z,13.16
2018-11-03T06:46:02.809Z,13.46
2018-11-03T06:48:31.498Z,13.72
2018-11-03T06:51:00.210Z,13.90
2018-11-03T06:53:29.014Z,14.08
2018-11-03T06:56:04.296Z,14.07
2018-11-03T06:58:32.989Z,14.05
2018-11-03T07:01:01.659Z,14.24
2018-11-03T07:03:30.350Z,14.48
2018-11-03T07:05:58.950Z,14.22
2018-11-03T07:08:27.627Z,14.12
2018-11-03T07:10:56.297Z,14.44
2018-11-03T07:13:25.151Z,14.55
2018-11-03T07:15:53.682Z,14.82
2018-11-03T07:18:22.350Z,15.20
2018-11-03T07:20:51.084Z,15.27
2018-11-03T07:23:19.746Z,15.04
2018-11-03T07:25:48.361Z,14.83
2018-11-03T07:28:17.071Z,15.00
2018-11-03T07:30:45.726Z,14.99
2018-11-03T07:33:14.407Z,15.24
2018-11-03T07:35:43.076Z,15.41
2018-11-03T07:38:11.778Z,15.62
2018-11-03T07:40:40.519Z,15.14
2018-11-03T07:43:09.416Z,15.27
2018-11-03T07:45:38.115Z,15.22
2018-11-03T07:48:06.996Z,15.66
2018-11-03T07:50:35.558Z,16.03
2018-11-03T07:53:04.564Z,15.81
2018-11-03T07:55:33.312Z,16.45
2018-11-03T07:58:02.063Z,16.47
2018-11-03T08:00:30.863Z,16.51
2018-11-03T08:02:59.926Z,16.69
2018-11-03T08:05:29.353Z,16.86
2018-11-03T08:07:58.093Z,16.43
2018-11-03T08:10:26.837Z,16.11
2018-11-03T08:12:55.838Z,16.65
2018-11-03T08:15:24.906Z,16.63
2018-11-03T08:17:53.637Z,16.37
2018-11-03T08:20:22.341Z,16.18
2018-11-03T08:22:51.001Z,16.20
2018-11-03T08:25:19.732Z,16.76
2018-11-03T08:27:48.466Z,17.40
2018-11-03T08:30:17.260Z,17.47
2018-11-03T08:32:46.461Z,17.31
2018-11-03T08:35:15.182Z,17.23
2018-11-03T08:37:44.190Z,17.11
2018-11-03T08:40:13.378Z,17.39
2018-11-03T08:42:42.221Z,17.62
2018-11-03T08:45:11.749Z,18.10
2018-11-03T08:47:40.841Z,18.50
2018-11-03T08:50:10.926Z,18.36
2018-11-03T08:52:39.832Z,18.62
2018-11-03T08:55:09.590Z,18.83
2018-11-03T08:57:38.321Z,19.15
2018-11-03T09:00:11.133Z,19.08
2018-11-03T09:02:40.249Z,18.74
2018-11-03T09:05:09.715Z,18.79
2018-11-03T09:07:38.843Z,18.56
2018-11-03T09:10:09.473Z,19.22
2018-11-03T09:12:38.447Z,19.58
2018-11-03T09:15:09.171Z,19.56
2018-11-03T09:17:38.794Z,19.68
2018-11-03T09:20:08.665Z,19.73
2018-11-03T09:22:38.200Z,20.03
2018-11-03T09:25:08.598Z,19.99
2018-11-03T09:27:37.522Z,20.13
2018-11-03T09:30:12.197Z,20.41
2018-11-03T09:32:41.132Z,20.06
2018-11-03T09:35:11.336Z,20.22
2018-11-03T09:37:40.615Z,20.38
2018-11-03T09:40:13.809Z,20.49
2018-11-03T09:42:43.410Z,20.15
2018-11-03T09:45:12.760Z,20.33
2018-11-03T09:47:41.898Z,20.45
2018-11-03T09:50:12.270Z,20.76
2018-11-03T09:52:41.746Z,21.02
2018-11-03T09:55:13.111Z,20.33
2018-11-03T09:57:42.109Z,20.46
2018-11-03T10:00:13.485Z,19.94
2018-11-03T10:02:42.677Z,20.27
2018-11-03T10:05:12.706Z,20.41
2018-11-03T10:07:41.436Z,20.56
2018-11-03T10:10:13.380Z,20.38
2018-11-03T10:12:42.557Z,20.46
2018-11-03T10:15:12.488Z,20.97
2018-11-03T10:17:42.625Z,21.43
2018-11-03T10:20:11.380Z,21.43
2018-11-03T10:22:40.141Z,20.59
2018-11-03T10:25:12.905Z,21.38
2018-11-03T10:27:41.943Z,21.46
2018-11-03T10:30:11.766Z,21.95
2018-11-03T10:32:41.054Z,21.92
2018-11-03T10:35:10.972Z,21.76
2018-11-03T10:37:39.718Z,21.76
2018-11-03T10:40:10.697Z,21.71
2018-11-03T10:42:39.679Z,21.82
2018-11-03T10:45:10.445Z,21.93
2018-11-03T10:47:39.888Z,22.27
2018-11-03T10:50:11.416Z,22.14
2018-11-03T10:52:41.316Z,22.12
2018-11-03T10:55:11.945Z,22.25
2018-11-03T10:57:41.309Z,22.66
2018-11-03T11:00:15.658Z,22.88
2018-11-03T11:02:49.934Z,23.26
2018-11-03T11:05:23.891Z,22.99
2018-11-03T11:07:58.107Z,23.11
2018-11-03T11:10:32.298Z,23.09
2018-11-03T11:13:04.105Z,23.75
2018-11-03T11:15:32.845Z,23.84
2018-11-03T11:18:01.646Z,24.46
2018-11-03T11:20:30.494Z,24.61
2018-11-03T11:22:59.368Z,24.34
2018-11-03T11:25:28.344Z,23.98
2018-11-03T11:27:57.442Z,23.28
2018-11-03T11:30:30.350Z,23.02
2018-11-03T11:32:59.153Z,23.11
2018-11-03T11:35:27.983Z,22.97
2018-11-03T11:37:56.805Z,23.03
2018-11-03T11:40:25.655Z,23.66
2018-11-03T11:42:54.524Z,23.94
2018-11-03T11:45:23.247Z,24.08
2018-11-03T11:47:51.960Z,23.98
2018-11-03T11:50:21.642Z,24.09
2018-11-03T11:52:50.468Z,24.26
2018-11-03T11:55:19.269Z,24.42
2018-11-03T11:57:48.277Z,24.17
2018-11-03T12:00:16.983Z,23.90
2018-11-03T12:02:45.670Z,23.71
2018-11-03T12:05:14.638Z,23.45
2018-11-03T12:07:43.321Z,23.34
2018-11-03T12:10:12.047Z,23.44
2018-11-03T12:12:40.648Z,23.66
2018-11-03T12:15:10.373Z,23.64
2018-11-03T12:17:39.070Z,23.63
2018-11-03T12:20:08.123Z,23.83
2018-11-03T12:22:37.065Z,23.82
2018-11-03T12:25:06.521Z,23.65
2018-11-03T12:27:35.184Z,23.76
2018-11-03T12:30:07.927Z,23.74
2018-11-03T12:32:36.645Z,23.93
2018-11-03T12:35:05.652Z,23.80
2018-11-03T12:37:34.449Z,23.70
2018-11-03T12:40:03.120Z,23.47
2018-11-03T12:42:31.762Z,23.43
2018-11-03T12:45:00.458Z,23.49
2018-11-03T12:47:29.134Z,23.56
2018-11-03T12:50:00.779Z,23.63
2018-11-03T12:52:30.721Z,23.50
2018-11-03T12:54:59.749Z,23.47
2018-11-03T12:57:28.498Z,23.47
2018-11-03T12:59:57.152Z,23.41
2018-11-03T13:02:25.784Z,23.51
2018-11-03T13:04:54.465Z,23.60
2018-11-03T13:07:23.164Z,23.62
2018-11-03T13:09:52.059Z,23.37
2018-11-03T13:12:20.760Z,23.31
2018-11-03T13:14:49.379Z,23.15
2018-11-03T13:17:17.997Z,23.05
2018-11-03T13:19:46.811Z,23.08
2018-11-03T13:22:15.445Z,23.08
2018-11-03T13:24:44.120Z,22.94
2018-11-03T13:27:12.781Z,22.78
2018-11-03T13:29:41.449Z,22.70
2018-11-03T13:32:10.810Z,22.63
2018-11-03T13:34:39.465Z,22.61
2018-11-03T13:37:08.099Z,22.51
2018-11-03T13:39:36.813Z,22.46
2018-11-03T13:42:05.622Z,22.42
2018-11-03T13:44:34.224Z,22.33
2018-11-03T13:47:02.956Z,22.29
2018-11-03T13:49:31.686Z,22.12
2018-11-03T13:52:00.301Z,22.02
2018-11-03T13:54:29.237Z,21.91
2018-11-03T13:56:57.946Z,21.72
2018-11-03T13:59:26.608Z,21.70
2018-11-03T14:01:55.558Z,21.61
2018-11-03T14:04:24.239Z,21.51
2018-11-03T14:06:52.967Z,21.42
2018-11-03T14:09:21.601Z,21.31
2018-11-03T14:11:50.244Z,21.27
2018-11-03T14:14:18.860Z,21.15
2018-11-03T14:16:47.476Z,21.01
2018-11-03T14:19:16.186Z,20.92
2018-11-03T14:21:44.831Z,20.83
2018-11-03T14:24:13.577Z,20.72
2018-11-03T14:26:42.238Z,20.61
2018-11-03T14:29:10.993Z,20.48
2018-11-03T14:31:39.638Z,20.39
2018-11-03T14:34:09.513Z,20.28
2018-11-03T14:36:38.274Z,20.11
2018-11-03T14:39:08.576Z,19.95
2018-11-03T14:41:37.204Z,19.78
2018-11-03T14:44:06.954Z,19.63
2018-11-03T14:46:35.628Z,19.49
2018-11-03T14:49:04.266Z,19.37
2018-11-03T14:51:32.910Z,19.22
2018-11-03T14:54:01.568Z,19.11
2018-11-03T14:56:30.225Z,18.97
2018-11-03T14:58:58.975Z,18.86
2018-11-03T15:01:27.651Z,18.76
2018-11-03T15:03:56.301Z,18.66
2018-11-03T15:06:25.038Z,18.51
2018-11-03T15:08:53.706Z,18.39
2018-11-03T15:11:22.313Z,18.28
2018-11-03T15:13:51.087Z,16.76
2018-11-03T15:16:19.654Z,18.01
2018-11-03T15:18:48.353Z,17.91
2018-11-03T15:21:17.013Z,17.81
2018-11-03T15:23:45.691Z,17.69
2018-11-03T15:26:14.313Z,17.54
2018-11-03T15:28:42.933Z,17.44
2018-11-03T15:31:11.646Z,17.34
2018-11-03T15:33:40.321Z,17.24
2018-11-03T15:36:09.029Z,17.16
2018-11-03T15:38:37.728Z,17.06
2018-11-03T15:41:06.623Z,16.95
2018-11-03T15:43:35.261Z,16.85
2018-11-03T15:46:03.945Z,16.77
2018-11-03T15:48:32.545Z,16.65
2018-11-03T15:51:01.194Z,16.56
2018-11-03T15:53:29.855Z,16.49
2018-11-03T15:55:58.485Z,16.37
2018-11-03T15:58:27.148Z,16.28
2018-11-03T16:00:55.904Z,16.14
2018-11-03T16:03:24.530Z,16.04
2018-11-03T16:05:53.153Z,15.95
2018-11-03T16:08:21.793Z,15.82
2018-11-03T16:10:50.433Z,15.73
2018-11-03T16:13:19.153Z,15.67
2018-11-03T16:15:47.829Z,15.65
2018-11-03T16:18:16.482Z,15.59
2018-11-03T16:20:45.351Z,15.58
2018-11-03T16:23:13.977Z,15.59
2018-11-03T16:25:42.690Z,15.67
2018-11-03T16:28:11.396Z,15.70
2018-11-03T16:30:40.098Z,15.69
2018-11-03T16:33:08.747Z,15.63
2018-11-03T16:35:37.497Z,15.55
2018-11-03T16:38:06.144Z,15.49
2018-11-03T16:40:35.102Z,15.43
2018-11-03T16:43:03.745Z,15.37
2018-11-03T16:45:32.493Z,15.27
2018-11-03T16:48:01.109Z,15.13
2018-11-03T16:50:29.718Z,14.93
2018-11-03T16:52:58.365Z,14.79
2018-11-03T16:55:27.253Z,14.67
2018-11-03T16:57:55.872Z,14.57
2018-11-03T17:00:24.583Z,14.44
2018-11-03T17:02:53.220Z,14.25
2018-11-03T17:05:21.858Z,14.04
2018-11-03T17:07:50.482Z,13.87
2018-11-03T17:10:19.128Z,13.75
2018-11-03T17:12:48.301Z,13.69
2018-11-03T17:15:17.233Z,13.61
2018-11-03T17:17:45.882Z,13.45
2018-11-03T17:20:14.581Z,13.29
2018-11-03T17:22:43.371Z,13.16
2018-11-03T17:25:12.893Z,13.02
2018-11-03T17:27:41.653Z,12.87
2018-11-03T17:30:13.041Z,12.76
2018-11-03T17:32:41.774Z,12.71
2018-11-03T17:35:10.806Z,12.74
2018-11-03T17:37:39.467Z,12.77
2018-11-03T17:40:09.066Z,12.75
2018-11-03T17:42:37.777Z,12.69
2018-11-03T17:45:07.186Z,12.58
2018-11-03T17:47:35.984Z,12.44
2018-11-03T17:50:05.160Z,12.36
2018-11-03T17:52:33.868Z,12.29
2018-11-03T17:55:02.610Z,12.25
2018-11-03T17:57:31.651Z,12.25
2018-11-03T18:00:00.352Z,12.28
2018-11-03T18:02:29.045Z,12.33
2018-11-03T18:04:57.725Z,12.32
2018-11-03T18:07:26.413Z,12.31
2018-11-03T18:09:55.054Z,12.27
2018-11-03T18:12:24.614Z,12.22
2018-11-03T18:14:53.368Z,12.15
2018-11-03T18:17:22.553Z,12.11
2018-11-03T18:19:51.276Z,12.12
2018-11-03T18:22:34.613Z,12.13
2018-11-03T18:25:03.589Z,12.12
2018-11-03T18:27:32.230Z,12.11
2018-11-03T18:30:00.862Z,12.10
2018-11-03T18:32:29.634Z,12.06
2018-11-03T18:34:58.287Z,12.00
2018-11-03T18:37:27.010Z,11.88
2018-11-03T18:39:55.732Z,11.84
2018-11-03T18:42:24.479Z,11.77
2018-11-03T18:44:53.170Z,11.70
2018-11-03T18:47:22.036Z,11.66
2018-11-03T18:49:50.758Z,11.63
2018-11-03T18:52:19.872Z,11.62
2018-11-03T18:54:48.597Z,11.60
2018-11-03T18:57:17.298Z,11.55
2018-11-03T18:59:46.144Z,11.55
2018-11-03T19:02:14.994Z,11.48
2018-11-03T19:04:43.865Z,11.41
2018-11-03T19:07:12.541Z,11.33
2018-11-03T19:09:41.228Z,11.27
2018-11-03T19:12:09.867Z,11.22
2018-11-03T19:14:38.566Z,11.16
2018-11-03T19:17:07.360Z,11.12
2018-11-03T19:19:35.989Z,11.06
2018-11-03T19:22:04.801Z,11.04
2018-11-03T19:24:33.478Z,10.97
2018-11-03T19:27:02.214Z,10.92
2018-11-03T19:29:30.898Z,10.86
2018-11-03T19:31:59.677Z,10.82
2018-11-03T19:34:28.458Z,10.80
2018-11-03T19:36:57.199Z,10.77
2018-11-03T19:39:26.486Z,10.73
2018-11-03T19:41:55.148Z,10.70
2018-11-03T19:44:23.827Z,10.67
2018-11-03T19:46:52.577Z,10.65
2018-11-03T19:49:21.249Z,10.65
2018-11-03T19:51:50.115Z,10.64
2018-11-03T19:54:18.746Z,10.62
2018-11-03T19:56:47.382Z,10.63
2018-11-03T19:59:16.005Z,10.61
2018-11-03T20:01:44.691Z,10.61
2018-11-03T20:04:13.309Z,10.62
2018-11-03T20:06:41.909Z,10.61
2018-11-03T20:09:10.563Z,10.58
2018-11-03T20:11:39.236Z,10.54
2018-11-03T20:14:08.046Z,10.50
2018-11-03T20:16:36.689Z,10.48
2018-11-03T20:19:05.523Z,10.45
2018-11-03T20:21:34.189Z,10.40
2018-11-03T20:24:02.805Z,10.38
2018-11-03T20:26:31.561Z,10.35
2018-11-03T20:29:00.227Z,10.32
2018-11-03T20:31:29.133Z,10.28
2018-11-03T20:33:57.815Z,10.25
2018-11-03T20:36:26.466Z,10.23
2018-11-03T20:38:55.117Z,10.19
2018-11-03T20:41:23.746Z,10.16
2018-11-03T20:43:52.388Z,10.12
2018-11-03T20:46:21.041Z,10.08
2018-11-03T20:48:49.732Z,10.05
2018-11-03T20:51:18.384Z,9.96
2018-11-03T20:53:47.152Z,9.88
2018-11-03T20:56:15.800Z,9.85
2018-11-03T20:58:44.409Z,9.85
2018-11-03T21:01:13.033Z,9.86
2018-11-03T21:03:41.818Z,9.87
2018-11-03T21:06:10.498Z,9.86
2018-11-03T21:08:39.213Z,9.85
2018-11-03T21:11:07.947Z,9.85
2018-11-03T21:13:36.577Z,9.83
2018-11-03T21:16:05.333Z,9.78
2018-11-03T21:18:33.998Z,9.75
2018-11-03T21:21:02.697Z,9.72
2018-11-03T21:23:31.541Z,9.70
2018-11-03T21:26:00.033Z,9.45
2018-11-03T21:28:28.669Z,9.72
2018-11-03T21:30:57.393Z,9.68
2018-11-03T21:33:26.179Z,9.65
2018-11-03T21:35:54.733Z,9.65
2018-11-03T21:38:23.438Z,9.65
2018-11-03T21:40:52.120Z,9.63
2018-11-03T21:43:20.758Z,9.64
2018-11-03T21:45:49.448Z,9.65
2018-11-03T21:48:18.083Z,9.64
2018-11-03T21:50:46.732Z,9.63
2018-11-03T21:53:15.445Z,9.61
2018-11-03T21:55:44.183Z,9.59
2018-11-03T21:58:12.814Z,9.57
2018-11-03T22:00:41.520Z,9.57
2018-11-03T22:03:10.169Z,7.98
2018-11-03T22:05:38.810Z,9.57
2018-11-03T22:08:08.477Z,9.60
2018-11-03T22:10:37.140Z,9.58
2018-11-03T22:13:05.878Z,9.53
2018-11-03T22:15:34.578Z,9.52
2018-11-03T22:18:03.311Z,9.48
2018-11-03T22:20:31.990Z,9.52
2018-11-03T22:23:00.646Z,9.53
2018-11-03T22:25:29.410Z,9.57
2018-11-03T22:27:58.085Z,9.56
2018-11-03T22:30:26.725Z,9.52
2018-11-03T22:32:55.411Z,9.50
2018-11-03T22:35:24.040Z,9.49
2018-11-03T22:37:52.692Z,9.47
2018-11-03T22:40:21.342Z,9.45
2018-11-03T22:42:49.962Z,9.44
2018-11-03T22:45:18.598Z,9.47
2018-11-03T22:47:47.279Z,9.45
2018-11-03T22:50:15.896Z,9.48
2018-11-03T22:52:44.672Z,9.47
2018-11-03T22:55:13.434Z,9.50
2018-11-03T22:57:42.074Z,9.55
2018-11-03T23:00:13.317Z,9.63
2018-11-03T23:02:42.601Z,9.65
2018-11-03T23:05:12.377Z,9.70
2018-11-03T23:07:41.221Z,9.73
2018-11-03T23:10:10.062Z,9.80
2018-11-03T23:12:38.822Z,9.80
2018-11-03T23:15:08.396Z,9.78
2018-11-03T23:17:37.101Z,9.75
2018-11-03T23:20:08.187Z,9.73
2018-11-03T23:22:38.051Z,9.70
2018-11-03T23:25:07.300Z,9.65
2018-11-03T23:27:36.042Z,9.63
2018-11-03T23:30:10.188Z,9.59
2018-11-03T23:32:38.800Z,9.54
2018-11-03T23:35:08.806Z,9.49
2018-11-03T23:37:37.509Z,9.43
2018-11-03T23:40:07.183Z,9.42
2018-11-03T23:42:35.884Z,9.38
2018-11-03T23:45:05.090Z,9.34
2018-11-03T23:47:33.762Z,9.26
2018-11-03T23:50:02.501Z,9.20
2018-11-03T23:52:33.081Z,9.19
2018-11-03T23:55:02.721Z,9.18
2018-11-03T23:57:31.362Z,9.16
